Time;durP1;ratioP1;P1;durP2;ratioP2;P2;SDS_P1;SDS_P2;PMS_P1;PMS_P2;Temp;Humidity;BMP_temperature;BMP_pressure;BME280_temperature;BME280_humidity;BME280_pressure;Samples;Min_cycle;Max_cycle;Signal;HPM_P1;HPM_P2
2024/01/18 00:03:58;;;;;;;31.85;18.73;;;;;;;-1.12;77.39;98057.25;10483220;28;20048;-79
2024/01/18 00:09:01;;;;;;;35.00;18.65;;;;;;;-1.34;77.95;98056.09;10494164;28;20079;-79
2024/01/18 00:14:06;;;;;;;41.97;19.60;;;;;;;-1.16;77.45;98059.22;10490032;28;20068;-79
2024/01/18 00:19:09;;;;;;;36.13;19.38;;;;;;;-1.05;77.30;98050.56;10479251;28;20071;-81
2024/01/18 00:24:12;;;;;;;33.20;17.00;;;;;;;-1.17;76.98;98060.19;10450269;28;20653;-78
2024/01/18 00:29:16;;;;;;;37.05;18.23;;;;;;;-1.28;76.79;98065.38;10446706;28;20051;-80
2024/01/18 00:34:19;;;;;;;34.35;17.95;;;;;;;-1.51;77.69;98085.38;10451321;28;20103;-77
2024/01/18 00:39:24;;;;;;;37.00;20.45;;;;;;;-1.49;78.47;98094.84;10462213;28;20060;-78
2024/01/18 00:44:28;;;;;;;38.55;18.17;;;;;;;-1.49;79.26;98104.53;10452097;28;20053;-79
2024/01/18 00:49:31;;;;;;;34.80;18.42;;;;;;;-1.71;80.16;98110.41;10446003;28;20056;-79
2024/01/18 00:54:34;;;;;;;37.63;19.77;;;;;;;-1.41;79.83;98105.69;10464166;28;20048;-79
2024/01/18 00:59:38;;;;;;;33.75;19.38;;;;;;;-1.33;78.98;98110.44;10464453;28;20442;-79
2024/01/18 01:04:41;;;;;;;33.85;19.42;;;;;;;-1.35;78.77;98119.41;10454527;28;20167;-77
2024/01/18 01:09:44;;;;;;;35.90;20.05;;;;;;;-1.48;79.65;98135.19;10457504;28;20044;-78
2024/01/18 01:14:49;;;;;;;39.38;19.48;;;;;;;-1.46;79.93;98146.47;10441964;28;20049;-80
2024/01/18 01:19:52;;;;;;;40.50;19.17;;;;;;;-1.43;79.71;98151.50;10449797;28;20397;-80
2024/01/18 01:24:55;;;;;;;38.40;19.13;;;;;;;-1.40;80.65;98148.69;10458259;28;20112;-80
2024/01/18 01:30:00;;;;;;;34.47;18.55;;;;;;;-1.36;79.36;98146.69;10452727;28;20044;-78
2024/01/18 01:35:03;;;;;;;37.85;19.15;;;;;;;-1.32;79.29;98149.00;10448624;28;20520;-80
2024/01/18 01:40:07;;;;;;;36.72;18.92;;;;;;;-1.31;78.03;98157.78;10455150;28;20045;-79
2024/01/18 01:45:12;;;;;;;35.03;18.98;;;;;;;-1.34;78.05;98169.34;10454997;28;20061;-80
2024/01/18 01:50:15;;;;;;;32.10;17.60;;;;;;;-1.30;78.01;98177.88;10456037;28;20130;-80
2024/01/18 01:55:18;;;;;;;32.47;17.55;;;;;;;-1.31;77.50;98171.78;10471184;28;20056;-77
2024/01/18 02:00:23;;;;;;;33.40;17.90;;;;;;;-1.44;77.02;98186.72;10451664;28;20048;-80
2024/01/18 02:05:27;;;;;;;31.98;18.75;;;;;;;-1.47;78.04;98184.28;10444896;28;20076;-78
2024/01/18 02:10:30;;;;;;;31.58;18.50;;;;;;;-1.39;78.24;98192.50;10453206;28;20488;-77
2024/01/18 02:15:35;;;;;;;31.27;18.15;;;;;;;-1.40;78.53;98190.81;10445793;28;20057;-80
2024/01/18 02:20:38;;;;;;;37.45;19.20;;;;;;;-1.44;78.65;98207.78;10442024;28;20112;-79
2024/01/18 02:25:46;;;;;;;37.08;20.80;;;;;;;-1.40;79.63;98201.34;10447589;28;20045;-77
2024/01/18 02:30:49;;;;;;;36.70;19.27;;;;;;;-1.48;80.11;98215.03;10453113;28;20094;-78
2024/01/18 02:35:53;;;;;;;35.95;20.55;;;;;;;-1.54;80.21;98212.78;10446549;28;21149;-79
2024/01/18 02:40:57;;;;;;;35.50;19.52;;;;;;;-1.49;80.57;98212.50;10460435;28;21477;-80
2024/01/18 02:46:00;;;;;;;35.63;19.75;;;;;;;-1.52;81.08;98220.59;10448000;28;20468;-76
2024/01/18 02:51:04;;;;;;;36.20;19.88;;;;;;;-1.44;80.92;98220.94;10445845;28;20045;-77
2024/01/18 02:56:09;;;;;;;32.88;19.80;;;;;;;-1.47;80.76;98222.00;10450491;28;20041;-77
2024/01/18 03:01:12;;;;;;;34.90;20.77;;;;;;;-1.32;80.13;98229.81;10447327;28;20057;-78
2024/01/18 03:06:15;;;;;;;44.65;21.05;;;;;;;-1.32;79.69;98222.75;10462711;28;20052;-76
2024/01/18 03:11:19;;;;;;;37.78;20.42;;;;;;;-1.61;81.64;98227.31;10462712;28;20072;-80
2024/01/18 03:16:22;;;;;;;36.08;19.17;;;;;;;-1.46;81.73;98234.19;10454877;28;20136;-79
2024/01/18 03:21:25;;;;;;;33.40;19.38;;;;;;;-1.42;80.73;98238.34;10452123;28;20550;-78
2024/01/18 03:26:29;;;;;;;33.40;19.02;;;;;;;-1.40;80.53;98233.81;10469318;28;20551;-80
2024/01/18 03:31:34;;;;;;;36.28;20.63;;;;;;;-1.47;80.67;98239.59;10463034;28;20049;-77
2024/01/18 03:36:36;;;;;;;34.35;19.83;;;;;;;-1.51;80.32;98233.69;10462694;28;20057;-80
2024/01/18 03:41:41;;;;;;;37.53;21.35;;;;;;;-1.51;80.73;98240.72;10464741;28;20060;-78
2024/01/18 03:46:44;;;;;;;37.05;21.55;;;;;;;-1.72;81.63;98232.44;10457718;28;20048;-78
2024/01/18 03:51:47;;;;;;;36.95;20.80;;;;;;;-1.71;81.26;98240.22;10447778;28;20071;-79
2024/01/18 03:56:52;;;;;;;36.95;20.63;;;;;;;-1.71;81.54;98232.31;10461645;28;20467;-79
2024/01/18 04:01:57;;;;;;;40.30;23.08;;;;;;;-1.55;81.15;98226.91;10458556;28;20516;-79
2024/01/18 04:07:00;;;;;;;40.25;22.40;;;;;;;-1.54;80.86;98222.50;10467793;28;20395;-77
2024/01/18 04:12:05;;;;;;;38.15;21.02;;;;;;;-1.49;80.81;98223.03;10481971;28;20056;-77
2024/01/18 04:17:08;;;;;;;45.40;21.88;;;;;;;-1.46;80.52;98223.66;10460626;28;20065;-79
2024/01/18 04:22:11;;;;;;;37.83;22.77;;;;;;;-1.47;80.18;98226.41;10446420;28;20049;-79
2024/01/18 04:27:16;;;;;;;37.58;21.92;;;;;;;-1.46;79.99;98233.34;10455778;28;20048;-79
2024/01/18 04:32:19;;;;;;;41.35;22.15;;;;;;;-1.47;79.97;98239.59;10452449;28;20059;-78
2024/01/18 04:37:22;;;;;;;46.03;24.10;;;;;;;-1.49;80.71;98250.19;10442093;28;20049;-79
2024/01/18 04:42:27;;;;;;;39.15;23.15;;;;;;;-1.42;80.62;98250.66;10451371;28;20044;-78
2024/01/18 04:47:30;;;;;;;42.55;23.55;;;;;;;-1.38;80.57;98249.50;10461233;28;20052;-79
2024/01/18 04:52:34;;;;;;;43.08;23.05;;;;;;;-1.34;80.71;98258.91;10450375;28;20045;-78
2024/01/18 04:57:39;;;;;;;41.67;24.10;;;;;;;-1.33;80.46;98271.13;10469403;28;20056;-78
2024/01/18 05:02:44;;;;;;;41.80;23.38;;;;;;;-1.34;80.35;98266.81;10453746;28;20617;-78
2024/01/18 05:07:47;;;;;;;41.13;23.05;;;;;;;-1.27;80.80;98278.59;10443740;28;20622;-77
2024/01/18 05:12:52;;;;;;;42.33;23.55;;;;;;;-1.26;80.23;98276.81;10458117;28;22005;-80
2024/01/18 05:17:57;;;;;;;44.97;23.95;;;;;;;-1.32;80.85;98290.38;10447372;28;20125;-78
2024/01/18 05:23:03;;;;;;;43.20;24.02;;;;;;;-1.36;80.80;98299.44;10448590;28;20174;-78
2024/01/18 05:28:07;;;;;;;45.90;25.05;;;;;;;-1.50;80.59;98295.09;10450714;28;20048;-80
2024/01/18 05:33:10;;;;;;;46.83;23.60;;;;;;;-1.57;81.21;98299.88;10447223;28;20123;-79
2024/01/18 05:38:14;;;;;;;45.17;24.52;;;;;;;-1.93;84.35;98300.44;10451936;28;20465;-80
2024/01/18 05:43:18;;;;;;;43.00;24.27;;;;;;;-1.85;83.92;98306.91;10450208;28;20066;-81
2024/01/18 05:48:22;;;;;;;39.70;23.75;;;;;;;-1.91;84.38;98317.81;10447333;28;20053;-78
2024/01/18 05:53:25;;;;;;;45.47;24.50;;;;;;;-1.89;84.27;98317.75;10440146;28;20036;-78
2024/01/18 05:58:31;;;;;;;47.75;25.33;;;;;;;-1.99;84.50;98330.63;10454550;28;20527;-78
2024/01/18 06:03:34;;;;;;;47.08;25.90;;;;;;;-2.00;85.33;98330.69;10448566;28;20327;-80
2024/01/18 06:08:37;;;;;;;45.40;24.83;;;;;;;-1.95;85.71;98340.00;10443094;28;20482;-80
2024/01/18 06:13:42;;;;;;;46.15;25.38;;;;;;;-1.91;85.50;98341.50;10447854;28;20664;-79
2024/01/18 06:18:45;;;;;;;54.63;26.30;;;;;;;-1.93;85.96;98363.59;10443495;28;20049;-77
2024/01/18 06:23:49;;;;;;;51.30;26.00;;;;;;;-1.93;86.05;98367.06;10462369;28;20048;-77
2024/01/18 06:28:53;;;;;;;55.20;28.38;;;;;;;-1.93;86.29;98380.22;10443474;28;20071;-80
2024/01/18 06:33:57;;;;;;;45.15;26.13;;;;;;;-1.95;86.43;98371.56;10450455;28;20182;-78
2024/01/18 06:39:00;;;;;;;49.05;27.45;;;;;;;-2.04;86.55;98387.09;10449168;28;20475;-80
2024/01/18 06:44:05;;;;;;;51.40;26.75;;;;;;;-2.04;87.25;98387.09;10458729;28;20058;-79
2024/01/18 06:49:08;;;;;;;59.15;28.88;;;;;;;-2.13;87.32;98404.28;10450500;28;20079;-77
2024/01/18 06:54:11;;;;;;;48.35;27.48;;;;;;;-2.20;87.52;98409.06;10447048;28;20094;-80
2024/01/18 06:59:16;;;;;;;50.42;27.48;;;;;;;-2.27;87.40;98417.44;10456072;28;20048;-78
2024/01/18 07:04:19;;;;;;;51.13;27.08;;;;;;;-2.29;88.05;98436.75;10450811;28;20040;-77
2024/01/18 07:09:22;;;;;;;51.50;26.15;;;;;;;-2.33;89.10;98443.16;10452687;28;20246;-77
2024/01/18 07:14:27;;;;;;;46.05;25.50;;;;;;;-2.54;90.22;98453.13;10452784;28;20075;-77
2024/01/18 07:19:34;;;;;;;48.10;26.90;;;;;;;-2.70;91.83;98468.09;10454039;28;20139;-78
2024/01/18 07:24:41;;;;;;;51.17;27.42;;;;;;;-2.66;91.01;98467.00;10457616;28;20171;-78
2024/01/18 07:29:45;;;;;;;53.30;29.13;;;;;;;-2.69;90.48;98464.50;10449767;28;20048;-77
2024/01/18 07:34:48;;;;;;;59.22;30.25;;;;;;;-2.71;91.29;98468.16;10454623;28;20463;-80
2024/01/18 07:39:52;;;;;;;52.00;28.45;;;;;;;-2.81;92.30;98463.44;10448387;28;20511;-78
2024/01/18 07:44:57;;;;;;;53.33;28.30;;;;;;;-2.67;91.98;98465.28;10451776;28;20059;-77
2024/01/18 07:50:01;;;;;;;54.67;28.15;;;;;;;-2.66;91.92;98472.25;10452837;28;20055;-80
2024/01/18 07:55:21;;;;;;;50.38;27.15;;;;;;;-2.66;91.88;98479.25;10455368;28;20055;-79
2024/01/18 08:00:26;;;;;;;24.27;12.98;;;;;;;-2.69;92.64;98498.69;10454011;28;20045;-79
2024/01/18 08:05:29;;;;;;;106.50;45.67;;;;;;;-2.33;93.34;98510.66;10453909;28;20052;-79
2024/01/18 08:10:33;;;;;;;134.75;61.30;;;;;;;-1.78;93.50;98512.69;10452435;28;20163;-76
2024/01/18 08:15:37;;;;;;;102.50;52.22;;;;;;;-1.73;89.80;98515.03;10446019;28;20453;-80
2024/01/18 08:20:40;;;;;;;38.88;21.45;;;;;;;-1.41;89.36;98524.44;10452690;28;20052;-78
2024/01/18 08:25:44;;;;;;;40.33;23.10;;;;;;;-1.64;86.87;98527.66;10439580;28;20056;-78
2024/01/18 08:30:48;;;;;;;41.90;23.65;;;;;;;-1.47;87.28;98550.31;10448216;28;20060;-79
2024/01/18 08:35:52;;;;;;;42.20;26.38;;;;;;;-0.82;85.83;98540.13;10481413;28;20184;-81
2024/01/18 08:40:57;;;;;;;46.15;23.90;;;;;;;-0.49;82.64;98544.16;10470646;28;20060;-78
2024/01/18 08:46:06;;;;;;;42.25;23.40;;;;;;;-0.17;79.68;98547.31;10474570;28;20043;-78
2024/01/18 08:51:13;;;;;;;38.88;22.80;;;;;;;0.27;78.39;98550.56;10470690;28;20048;-81
2024/01/18 08:56:17;;;;;;;37.92;22.65;;;;;;;0.90;75.89;98556.81;10465688;28;20051;-79
2024/01/18 09:01:30;;;;;;;33.70;20.50;;;;;;;0.97;73.21;98555.44;10474621;28;20569;-80
2024/01/18 09:06:33;;;;;;;38.22;21.15;;;;;;;1.14;71.57;98559.53;10454305;28;20055;-80
2024/01/18 09:11:36;;;;;;;38.13;20.85;;;;;;;0.75;71.90;98567.50;10487747;28;20519;-79
2024/01/18 09:16:42;;;;;;;38.42;20.10;;;;;;;0.22;73.82;98579.97;10493954;28;20044;-78
2024/01/18 09:21:45;;;;;;;35.25;20.85;;;;;;;0.44;74.05;98581.13;10454487;28;20052;-80
2024/01/18 09:26:49;;;;;;;33.40;20.30;;;;;;;0.59;74.68;98588.84;10454482;28;20877;-79
2024/01/18 09:31:56;;;;;;;33.40;19.92;;;;;;;1.09;73.07;98594.22;10482336;28;20071;-80
2024/01/18 09:36:59;;;;;;;33.15;18.80;;;;;;;1.72;69.40;98600.31;10471555;28;20099;-81
2024/01/18 09:42:06;;;;;;;32.53;19.90;;;;;;;2.14;67.65;98609.56;10458303;28;20052;-79
2024/01/18 09:47:11;;;;;;;28.88;15.95;;;;;;;2.22;66.67;98619.56;10475570;28;20044;-79
2024/01/18 09:52:16;;;;;;;25.20;16.27;;;;;;;2.44;65.49;98629.44;10455433;28;20114;-79
2024/01/18 09:57:25;;;;;;;24.75;14.38;;;;;;;2.58;64.64;98637.22;10462192;28;20504;-80
2024/01/18 10:02:30;;;;;;;23.02;15.20;;;;;;;2.01;67.48;98645.00;10475905;28;20367;-79
2024/01/18 10:07:33;;;;;;;23.65;14.57;;;;;;;2.09;67.22;98647.94;10446384;28;20056;-80
2024/01/18 10:12:36;;;;;;;27.40;15.65;;;;;;;2.54;64.99;98641.03;10426810;28;20057;-78
2024/01/18 10:17:41;;;;;;;19.92;14.52;;;;;;;3.12;65.04;98653.44;10454176;28;20597;-78
2024/01/18 10:22:44;;;;;;;24.42;14.32;;;;;;;4.27;60.84;98653.06;10451716;28;20058;-78
2024/01/18 10:27:47;;;;;;;23.17;14.93;;;;;;;4.44;58.96;98651.66;10467095;28;20053;-78
2024/01/18 10:32:51;;;;;;;20.38;12.88;;;;;;;3.52;61.25;98675.06;10435860;28;20122;-80
2024/01/18 10:38:02;;;;;;;21.45;12.13;;;;;;;3.53;63.08;98682.03;10432388;28;20750;-79
2024/01/18 10:43:07;;;;;;;20.52;11.45;;;;;;;4.73;60.26;98681.13;10441483;28;20065;-76
2024/01/18 10:48:12;;;;;;;16.38;9.85;;;;;;;5.15;56.96;98686.47;10468779;28;20483;-78
2024/01/18 10:53:16;;;;;;;12.77;6.68;;;;;;;5.74;55.58;98690.28;10448512;28;20053;-78
2024/01/18 10:58:20;;;;;;;9.05;5.95;;;;;;;6.36;52.91;98688.31;10427282;28;20095;-79
2024/01/18 11:03:24;;;;;;;12.63;6.95;;;;;;;7.00;49.44;98700.28;10445699;28;20071;-78
2024/01/18 11:08:28;;;;;;;9.70;6.38;;;;;;;6.95;48.78;98697.19;10463832;28;20149;-78
2024/01/18 11:13:31;;;;;;;9.82;5.80;;;;;;;7.78;48.08;98702.75;10475094;28;20314;-75
2024/01/18 11:18:36;;;;;;;9.85;6.22;;;;;;;9.12;46.25;98701.97;10452031;28;20044;-80
2024/01/18 11:23:40;;;;;;;9.55;6.28;;;;;;;9.56;45.30;98706.44;10457347;28;20060;-80
2024/01/18 11:28:43;;;;;;;10.68;6.15;;;;;;;10.61;42.38;98721.28;10441114;28;20071;-76
2024/01/18 11:33:47;;;;;;;12.77;6.85;;;;;;;10.14;42.28;98721.84;10455774;28;20063;-78
2024/01/18 11:38:50;;;;;;;9.48;6.28;;;;;;;8.25;46.10;98726.69;10457070;28;20049;-77
2024/01/18 11:43:54;;;;;;;8.77;6.25;;;;;;;8.17;45.82;98722.09;10452145;28;20072;-79
2024/01/18 11:48:59;;;;;;;12.65;6.97;;;;;;;7.42;47.48;98727.47;10447857;28;20698;-79
2024/01/18 11:54:03;;;;;;;12.27;6.35;;;;;;;6.99;48.97;98734.16;10456396;28;20045;-79
2024/01/18 11:59:08;;;;;;;8.90;5.80;;;;;;;6.18;50.58;98746.81;10447614;28;20435;-78
2024/01/18 12:04:13;;;;;;;8.95;5.53;;;;;;;5.19;54.08;98743.81;10454438;28;20304;-79
2024/01/18 12:09:16;;;;;;;12.68;6.45;;;;;;;5.92;55.68;98744.63;10455328;28;20065;-77
2024/01/18 12:14:19;;;;;;;9.85;6.80;;;;;;;8.16;49.32;98745.31;10439255;28;20044;-80
2024/01/18 12:19:34;;;;;;;10.35;6.15;;;;;;;9.81;44.44;98747.63;10453568;28;20416;-78
2024/01/18 12:24:37;;;;;;;11.07;5.60;;;;;;;9.99;42.93;98745.75;10494317;28;20040;-79
2024/01/18 12:29:42;;;;;;;9.18;5.35;;;;;;;7.72;46.73;98768.31;10483790;28;20048;-77
2024/01/18 12:34:46;;;;;;;8.98;5.63;;;;;;;7.31;48.00;98772.19;10491546;28;20127;-79
2024/01/18 12:39:51;;;;;;;10.98;6.07;;;;;;;7.82;48.77;98776.31;10495296;28;20040;-79
2024/01/18 12:44:57;;;;;;;13.52;6.30;;;;;;;7.37;48.69;98791.16;10499195;28;20040;-78
2024/01/18 12:50:04;;;;;;;9.98;5.55;;;;;;;5.50;54.02;98794.47;10498686;28;20102;-79
2024/01/18 12:55:08;;;;;;;8.20;5.45;;;;;;;5.62;54.54;98800.56;10505927;28;20040;-77
2024/01/18 13:00:12;;;;;;;12.35;5.75;;;;;;;5.69;55.79;98809.72;10477687;28;20055;-77
2024/01/18 13:05:18;;;;;;;8.18;5.25;;;;;;;6.26;53.76;98805.63;10534244;28;20035;-76
2024/01/18 13:10:22;;;;;;;7.63;4.97;;;;;;;6.86;52.07;98824.31;10538251;28;20044;-80
2024/01/18 13:15:25;;;;;;;10.07;5.70;;;;;;;5.97;55.27;98834.81;10499463;28;20050;-78
2024/01/18 13:20:29;;;;;;;6.90;5.03;;;;;;;6.78;53.05;98838.34;10498621;28;20067;-80
2024/01/18 13:25:33;;;;;;;6.63;4.95;;;;;;;6.58;53.48;98849.94;10505149;28;21133;-79
2024/01/18 13:30:36;;;;;;;11.38;4.93;;;;;;;7.50;50.47;98850.47;10502880;28;20101;-78
2024/01/18 13:35:41;;;;;;;7.10;4.78;;;;;;;5.94;54.28;98862.59;10501918;28;20063;-77
2024/01/18 13:40:44;;;;;;;8.10;4.30;;;;;;;6.31;54.83;98870.06;10481852;28;20639;-79
2024/01/18 13:45:47;;;;;;;9.88;3.63;;;;;;;6.55;52.63;98882.22;10498634;28;20487;-79
2024/01/18 13:50:52;;;;;;;7.13;3.00;;;;;;;5.92;53.50;98890.34;10494434;28;21404;-75
2024/01/18 13:55:56;;;;;;;7.25;3.47;;;;;;;6.46;52.05;98901.72;10492659;28;20049;-80
2024/01/18 14:01:00;;;;;;;8.70;2.85;;;;;;;6.64;51.35;98908.09;10496480;28;21129;-77
2024/01/18 14:06:05;;;;;;;6.15;3.47;;;;;;;6.36;51.76;98929.19;10486000;28;20048;-79
2024/01/18 14:11:08;;;;;;;7.38;4.55;;;;;;;6.48;51.79;98940.63;10473883;28;20628;-77
2024/01/18 14:16:16;;;;;;;7.95;3.72;;;;;;;6.78;52.05;98952.25;10477039;28;20928;-79
2024/01/18 14:21:20;;;;;;;3.45;2.50;;;;;;;6.56;51.83;98959.47;10493044;28;20130;-80
2024/01/18 14:26:23;;;;;;;8.43;3.33;;;;;;;6.78;50.50;98981.63;10498585;28;20517;-79
2024/01/18 14:31:26;;;;;;;4.72;1.90;;;;;;;5.88;52.01;98999.03;10490929;28;20790;-77
2024/01/18 14:36:31;;;;;;;3.08;1.95;;;;;;;4.19;57.29;99016.94;10508762;28;20120;-80
2024/01/18 14:41:34;;;;;;;5.63;2.55;;;;;;;3.23;61.98;99025.81;10477753;28;20032;-81
2024/01/18 14:46:37;;;;;;;3.15;1.80;;;;;;;2.71;64.68;99052.53;10468331;28;20052;-80
2024/01/18 14:51:42;;;;;;;6.22;2.13;;;;;;;2.45;67.43;99059.63;10464213;28;20057;-78
2024/01/18 14:56:46;;;;;;;5.32;2.00;;;;;;;3.21;65.69;99058.72;10488179;28;20876;-78
2024/01/18 15:01:50;;;;;;;4.88;2.00;;;;;;;3.79;63.55;99081.06;10514085;28;20529;-77
2024/01/18 15:06:54;;;;;;;8.80;2.20;;;;;;;3.91;62.16;99082.78;10537807;28;20103;-77
2024/01/18 15:11:58;;;;;;;4.20;2.25;;;;;;;3.38;63.93;99092.88;10525996;28;20112;-77
2024/01/18 15:17:01;;;;;;;3.25;2.10;;;;;;;3.54;63.51;99110.34;10504298;28;21053;-77
2024/01/18 15:22:06;;;;;;;3.33;2.22;;;;;;;3.36;63.11;99112.53;10506471;28;20048;-79
2024/01/18 15:27:09;;;;;;;4.25;2.20;;;;;;;2.46;66.86;99128.41;10510412;28;20526;-79
2024/01/18 15:32:12;;;;;;;4.50;2.65;;;;;;;2.05;69.25;99149.69;10506382;28;20604;-79
2024/01/18 15:37:16;;;;;;;7.75;5.00;;;;;;;1.95;70.09;99160.91;10483790;28;20295;-80
2024/01/18 15:42:20;;;;;;;4.60;1.80;;;;;;;1.82;71.10;99157.34;10505728;28;20107;-78
2024/01/18 15:47:23;;;;;;;5.82;2.47;;;;;;;1.68;73.21;99179.41;10502307;28;20048;-80
2024/01/18 15:52:27;;;;;;;4.53;2.00;;;;;;;1.60;73.72;99196.72;10481851;28;20040;-78
2024/01/18 15:57:31;;;;;;;3.35;2.10;;;;;;;1.40;74.44;99214.72;10477693;28;21208;-77
2024/01/18 16:02:34;;;;;;;4.65;1.83;;;;;;;1.23;75.81;99226.28;10482039;28;20056;-77
2024/01/18 16:07:38;;;;;;;4.05;2.22;;;;;;;1.16;75.80;99238.22;10487728;28;20586;-79
2024/01/18 16:12:42;;;;;;;5.45;2.10;;;;;;;1.13;76.82;99256.06;10475704;28;20048;-80
2024/01/18 16:17:45;;;;;;;8.20;1.98;;;;;;;1.22;76.57;99274.03;10457132;28;20064;-79
2024/01/18 16:22:50;;;;;;;10.75;1.58;;;;;;;1.28;76.98;99284.22;10453528;28;21289;-80
2024/01/18 16:27:53;;;;;;;2.47;1.50;;;;;;;1.25;77.55;99302.94;10485640;28;21157;-80
2024/01/18 16:32:56;;;;;;;4.05;1.52;;;;;;;1.34;77.62;99304.19;10470744;28;20046;-80
2024/01/18 16:38:01;;;;;;;4.45;1.20;;;;;;;0.92;79.53;99319.84;10482413;28;20052;-80
2024/01/18 16:43:04;;;;;;;4.03;1.63;;;;;;;1.20;79.24;99339.38;10506776;28;20196;-78
2024/01/18 16:48:08;;;;;;;4.97;1.90;;;;;;;1.14;79.72;99337.13;10479644;28;20057;-79
2024/01/18 16:53:12;;;;;;;7.13;2.33;;;;;;;1.28;79.25;99348.56;10491891;28;20048;-79
2024/01/18 16:58:15;;;;;;;6.13;2.35;;;;;;;1.24;80.21;99368.22;10494114;28;20048;-80
2024/01/18 17:03:19;;;;;;;6.35;2.65;;;;;;;0.88;81.72;99375.63;10496440;28;20052;-79
2024/01/18 17:08:23;;;;;;;3.63;2.10;;;;;;;0.91;81.72;99386.06;10462340;28;20131;-80
2024/01/18 17:13:26;;;;;;;3.75;2.13;;;;;;;1.23;80.21;99400.06;10472193;28;20044;-79
2024/01/18 17:18:31;;;;;;;7.75;1.90;;;;;;;1.20;80.15;99418.75;10463704;28;20058;-77
2024/01/18 17:23:36;;;;;;;8.05;2.47;;;;;;;1.01;81.23;99435.66;10487181;28;20059;-77
2024/01/18 17:28:39;;;;;;;3.58;2.28;;;;;;;0.97;80.84;99441.25;10463525;28;20476;-81
2024/01/18 17:33:43;;;;;;;2.72;2.15;;;;;;;0.81;81.27;99459.75;10461351;28;20692;-80
2024/01/18 17:38:48;;;;;;;6.57;3.10;;;;;;;0.45;83.03;99466.09;10462651;28;20040;-79
2024/01/18 17:43:51;;;;;;;2.90;2.13;;;;;;;0.39;82.31;99471.72;10468877;28;20040;-79
2024/01/18 17:48:54;;;;;;;3.70;2.08;;;;;;;0.08;83.87;99483.03;10460956;28;20039;-79
2024/01/18 17:54:03;;;;;;;4.43;2.10;;;;;;;-0.17;84.99;99484.28;10434045;28;20075;-76
2024/01/18 17:59:06;;;;;;;5.95;2.47;;;;;;;-0.24;85.99;99500.53;10442847;28;20052;-79
2024/01/18 18:04:09;;;;;;;2.05;1.80;;;;;;;-0.49;88.51;99507.03;10429074;28;20056;-79
2024/01/18 18:09:13;;;;;;;3.70;2.17;;;;;;;-0.46;87.75;99514.81;10463454;28;20182;-78
2024/01/18 18:14:16;;;;;;;6.68;2.40;;;;;;;-0.65;90.47;99529.81;10442277;28;20051;-78
2024/01/18 18:19:20;;;;;;;7.20;2.67;;;;;;;-0.78;91.20;99533.03;10440900;28;20044;-81
2024/01/18 18:24:24;;;;;;;5.45;2.95;;;;;;;-0.74;89.88;99539.88;10430531;28;20151;-77
2024/01/18 18:29:27;;;;;;;10.93;3.28;;;;;;;-0.75;90.68;99550.50;10427232;28;20140;-80
2024/01/18 18:34:30;;;;;;;7.88;5.07;;;;;;;-0.72;90.65;99553.84;10477990;28;20138;-80
2024/01/18 18:39:35;;;;;;;8.80;5.47;;;;;;;-0.71;90.52;99565.25;10451727;28;20060;-80
2024/01/18 18:44:38;;;;;;;8.40;4.40;;;;;;;-0.79;91.50;99567.41;10452801;28;20520;-78
2024/01/18 18:49:41;;;;;;;8.65;4.60;;;;;;;-0.81;90.99;99574.53;10458450;28;20226;-79
2024/01/18 18:54:45;;;;;;;7.82;3.75;;;;;;;-0.78;91.59;99580.50;10444818;28;20127;-80
2024/01/18 18:59:48;;;;;;;6.43;3.88;;;;;;;-0.72;91.68;99592.53;10493875;28;20080;-80
2024/01/18 19:04:55;;;;;;;6.05;4.05;;;;;;;-0.76;91.62;99599.75;10487328;28;20045;-79
2024/01/18 19:09:59;;;;;;;8.70;4.32;;;;;;;-0.90;92.10;99615.38;10476127;28;20052;-80
2024/01/18 19:15:02;;;;;;;9.93;4.90;;;;;;;-0.97;92.59;99630.59;10450366;28;20423;-80
2024/01/18 19:20:07;;;;;;;14.02;5.88;;;;;;;-1.07;93.73;99631.06;10456835;28;20135;-78
2024/01/18 19:25:11;;;;;;;9.18;5.55;;;;;;;-1.38;97.03;99650.03;10468193;28;20143;-79
2024/01/18 19:30:14;;;;;;;13.50;6.25;;;;;;;-1.60;98.84;99658.00;10470281;28;20066;-80
2024/01/18 19:35:17;;;;;;;13.82;6.65;;;;;;;-1.38;97.39;99671.13;10468058;28;20040;-77
2024/01/18 19:40:22;;;;;;;11.77;7.05;;;;;;;-1.50;99.03;99690.94;10459497;28;20056;-81
2024/01/18 19:45:26;;;;;;;14.57;6.88;;;;;;;-1.32;96.86;99690.13;10470804;28;20068;-80
2024/01/18 19:50:29;;;;;;;13.20;6.70;;;;;;;-1.11;95.41;99704.16;10510169;28;20048;-78
2024/01/18 19:55:34;;;;;;;12.18;6.43;;;;;;;-1.10;95.21;99715.56;10472083;28;20048;-79
2024/01/18 20:00:37;;;;;;;12.43;6.60;;;;;;;-1.09;94.68;99727.84;10467951;28;20040;-81
2024/01/18 20:05:40;;;;;;;10.55;6.13;;;;;;;-1.01;93.88;99729.22;10498524;28;20050;-80
2024/01/18 20:10:45;;;;;;;11.27;5.82;;;;;;;-1.07;93.71;99744.44;10495219;28;20055;-81
2024/01/18 20:15:48;;;;;;;12.98;7.05;;;;;;;-1.15;93.57;99757.06;10498260;28;20151;-81
2024/01/18 20:20:51;;;;;;;15.57;7.97;;;;;;;-1.13;93.48;99763.16;10496193;28;20055;-79
2024/01/18 20:25:56;;;;;;;12.43;6.60;;;;;;;-1.13;93.05;99776.31;10473074;28;20052;-81
2024/01/18 20:30:59;;;;;;;13.68;7.47;;;;;;;-1.11;92.29;99780.63;10478288;28;20081;-80
2024/01/18 20:36:02;;;;;;;14.20;6.32;;;;;;;-1.12;92.50;99791.25;10495132;28;20101;-81
2024/01/18 20:41:07;;;;;;;14.77;7.50;;;;;;;-1.08;92.13;99803.34;10454866;28;20637;-81
2024/01/18 20:46:10;;;;;;;14.02;7.40;;;;;;;-1.22;92.95;99793.41;10464911;28;20051;-81
2024/01/18 20:51:13;;;;;;;13.82;7.85;;;;;;;-1.22;93.41;99799.50;10463506;28;20040;-80
2024/01/18 20:56:17;;;;;;;15.90;8.38;;;;;;;-1.20;93.78;99818.75;10460340;28;20049;-79
2024/01/18 21:01:21;;;;;;;14.98;9.10;;;;;;;-1.27;93.96;99819.94;10457607;28;20053;-80
2024/01/18 21:06:24;;;;;;;12.48;8.45;;;;;;;-1.40;95.09;99827.50;10455863;28;20052;-81
2024/01/18 21:11:28;;;;;;;20.05;10.00;;;;;;;-1.43;96.69;99826.75;10448404;28;20179;-81
2024/01/18 21:16:31;;;;;;;13.60;8.73;;;;;;;-1.44;96.87;99828.53;10453693;28;20086;-79
2024/01/18 21:21:35;;;;;;;14.82;9.40;;;;;;;-1.47;97.77;99844.47;10451125;28;20048;-80
2024/01/18 21:26:39;;;;;;;22.30;8.57;;;;;;;-1.54;100.00;99848.25;10448450;28;20049;-81
2024/01/18 21:31:42;;;;;;;18.88;10.43;;;;;;;-1.49;100.00;99856.81;10459872;28;20123;-78
2024/01/18 21:36:45;;;;;;;21.23;11.57;;;;;;;-1.33;99.07;99862.34;10459707;28;20044;-81
2024/01/18 21:41:51;;;;;;;20.80;10.40;;;;;;;-1.39;100.00;99873.13;10462453;28;20060;-75
2024/01/18 21:46:55;;;;;;;19.63;10.73;;;;;;;-1.47;99.00;99878.72;10481425;28;20072;-75
2024/01/18 21:51:58;;;;;;;16.58;9.27;;;;;;;-1.48;99.49;99889.28;10464358;28;20044;-79
2024/01/18 21:57:02;;;;;;;14.32;10.30;;;;;;;-1.76;100.00;99895.63;10463969;28;20049;-81
2024/01/18 22:02:09;;;;;;;18.75;10.02;;;;;;;-1.73;100.00;99903.41;10459405;28;20492;-79
2024/01/18 22:07:12;;;;;;;18.55;9.50;;;;;;;-1.90;100.00;99909.31;10458179;28;20068;-82
2024/01/18 22:12:17;;;;;;;13.70;7.82;;;;;;;-1.48;100.00;99908.63;10447750;28;20048;-80
2024/01/18 22:17:20;;;;;;;11.73;7.97;;;;;;;-1.67;100.00;99915.50;10456032;28;20048;-79
2024/01/18 22:22:23;;;;;;;15.43;10.25;;;;;;;-1.48;100.00;99924.44;10455096;28;20420;-79
2024/01/18 22:27:28;;;;;;;19.40;9.65;;;;;;;-1.50;100.00;99923.63;10455517;28;20055;-79
2024/01/18 22:32:31;;;;;;;12.82;8.02;;;;;;;-1.66;100.00;99923.34;10457285;28;20105;-78
2024/01/18 22:37:34;;;;;;;20.55;9.43;;;;;;;-1.59;100.00;99929.25;10455868;28;20060;-81
2024/01/18 22:42:39;;;;;;;13.38;8.52;;;;;;;-1.60;100.00;99934.56;10441970;28;20052;-80
2024/01/18 22:47:42;;;;;;;13.50;7.85;;;;;;;-1.83;100.00;99938.91;10447301;28;21838;-78
2024/01/18 22:52:45;;;;;;;13.68;8.10;;;;;;;-1.83;100.00;99943.34;10441649;28;20052;-81
2024/01/18 22:57:49;;;;;;;13.25;7.43;;;;;;;-1.66;100.00;99949.66;10444097;28;20048;-79
2024/01/18 23:02:52;;;;;;;15.07;7.93;;;;;;;-1.51;100.00;99950.88;10454221;28;20059;-80
2024/01/18 23:07:55;;;;;;;12.30;7.75;;;;;;;-1.34;100.00;99959.91;10459151;28;20043;-81
2024/01/18 23:13:00;;;;;;;13.50;6.55;;;;;;;-1.58;100.00;99959.06;10464184;28;21203;-80
2024/01/18 23:18:03;;;;;;;9.13;6.85;;;;;;;-1.39;97.98;99973.25;10462632;28;20052;-80
2024/01/18 23:23:08;;;;;;;11.15;6.97;;;;;;;-1.35;96.79;99974.00;10465297;28;20048;-80